Impacts METAR Board
IDs:

KCLE - Cleveland/Hopkins In, OH, US

Updated at: 1900 UTC 17 Jul 2018
Potential Impact None Slight Moderate High
Time 17/07Z 17/08Z 17/09Z 17/10Z 17/11Z 17/12Z 17/13Z 17/14Z 17/15Z 17/16Z 17/17Z 17/18Z 17/19Z
Temp75 75 74 73 72 75 75 76 78 80 80 80 80
Dewpt72 72 71 68 68 71 68 66 63 62 61 61 58
Altim29.88 29.89 29.89 29.90 29.92 29.94 29.96 29.97 29.98 29.99 29.99 29.99 29.99
VIS9 9 10 10 10 10 10 10 10 10 10 10 10
CIG65 -- -- -- -- 12 18 -- -- -- -- -- --
CoverBKNCLRCLRCLRCLROVCOVCSCTFEWFEWSCTFEWFEW
FltCatVFRVFRVFRVFRVFRMVFRMVFRVFRVFRVFRVFRVFRVFR
WX--------------------------
WDir2402803002902603203503601034010350340
WSpd7 6 4 5 3 6 10 11 11 9 11 12 10
WGst-- -- -- -- -- -- -- -- -- -- -- -- --
Raw hourly METARs
KCLE 170651Z 24007KT 9SM FEW035 BKN065 24/22 A2988 RMK AO2 SLP112 T02390222
KCLE 170751Z 28006KT 9SM CLR 24/22 A2989 RMK AO2 SLP114 T02390222
KCLE 170851Z 30004KT 10SM CLR 23/22 A2989 RMK AO2 SLP113 T02330217 56001
KCLE 170951Z 29005KT 10SM CLR 23/20 A2990 RMK AO2 SLP118 T02280200
KCLE 171051Z 26003KT 10SM CLR 22/20 A2992 RMK AO2 SLP123 T02220200
KCLE 171151Z 32006KT 10SM OVC012 24/22 A2994 RMK AO2 SLP133 70081 T02390217 10239 20222 51013
KCLE 171251Z 35010KT 10SM FEW010 OVC018 24/20 A2996 RMK AO2 SLP140 T02390200
KCLE 171351Z 36011KT 10SM SCT022 24/19 A2997 RMK AO2 SLP142 T02440189 $
KCLE 171451Z 01011KT 10SM FEW035 26/17 A2998 RMK AO2 SLP147 T02560172 53007 $
KCLE 171551Z 34009KT 310V010 10SM FEW035 FEW250 27/17 A2999 RMK AO2 SLP148 T02670167 $
KCLE 171651Z 01011KT 10SM FEW035 SCT250 27/16 A2999 RMK AO2 SLP148 T02670161 $
KCLE 171751Z 35012KT 10SM FEW035 FEW250 27/16 A2999 RMK AO2 SLP151 T02670161 10272 20239 53004 $
KCLE 171851Z 34010KT 10SM FEW035 FEW250 27/14 A2999 RMK AO2 SLP148 T02670144



Page loaded:  19:30 UTC  |   12:30 PM Pacific  |   01:30 PM Mountain  |   02:30 PM Central  |   03:30 PM Eastern

 

ADVISORIES

FORECASTS

FORECASTS

OBSERVATIONS

USER TOOLS

ABOUT US